Time;durP1;ratioP1;P1;durP2;ratioP2;P2;SDS_P1;SDS_P2;PMS_P1;PMS_P2;Temp;Humidity;BMP_temperature;BMP_pressure;BME280_temperature;BME280_humidity;BME280_pressure;Samples;Min_cycle;Max_cycle;Signal;HPM_P1;HPM_P2
2022/04/20 00:02:24;;;;;;;3.40;3.20;;;8.80;58.50;8.80;96147.00;;;;5074215;28;20286;-86
2022/04/20 00:04:55;;;;;;;3.13;2.93;;;8.70;58.00;8.70;96142.00;;;;5074064;28;20196;-86
2022/04/20 00:07:23;;;;;;;3.07;2.87;;;8.70;58.10;8.70;96143.00;;;;5074332;28;20234;-86
2022/04/20 00:09:50;;;;;;;2.90;2.70;;;8.60;58.10;8.60;96141.00;;;;5074025;28;20670;-86
2022/04/20 00:12:17;;;;;;;2.83;2.63;;;8.50;58.20;8.50;96145.00;;;;5074250;28;20644;-85
2022/04/20 00:14:45;;;;;;;3.20;3.00;;;8.50;58.30;8.50;96144.00;;;;5073923;28;20235;-84
2022/04/20 00:17:12;;;;;;;3.47;3.17;;;8.50;58.40;8.50;96134.00;;;;5074061;28;20224;-85
2022/04/20 00:19:41;;;;;;;2.90;2.70;;;8.40;58.40;8.40;96135.00;;;;5074134;28;20311;-86
2022/04/20 00:22:10;;;;;;;3.60;3.30;;;8.40;58.40;8.40;96134.00;;;;5074073;28;20287;-85
2022/04/20 00:24:37;;;;;;;3.20;3.00;;;8.30;58.50;8.30;96135.00;;;;5073647;28;20200;-86
2022/04/20 00:27:05;;;;;;;3.33;3.00;;;8.30;58.70;8.20;96143.00;;;;5073713;28;20255;-86
2022/04/20 00:29:32;;;;;;;3.30;3.10;;;8.20;58.80;8.20;96140.00;;;;5073777;28;20296;-86
2022/04/20 00:32:00;;;;;;;3.70;3.50;;;8.20;58.90;8.20;96138.00;;;;5073873;28;20231;-87
2022/04/20 00:34:27;;;;;;;3.30;3.10;;;8.10;58.90;8.10;96134.00;;;;5073657;28;20230;-86
2022/04/20 00:36:55;;;;;;;3.17;2.97;;;8.10;59.00;8.10;96138.00;;;;5073529;28;20200;-86
2022/04/20 00:39:24;;;;;;;3.27;3.07;;;8.10;59.10;8.10;96133.00;;;;5073236;28;20256;-85
2022/04/20 00:41:52;;;;;;;3.50;3.23;;;8.00;59.10;8.10;96135.00;;;;5073254;28;20200;-86
2022/04/20 00:44:21;;;;;;;4.10;3.33;;;8.00;59.10;8.00;96129.00;;;;5073209;28;20375;-86
2022/04/20 00:46:49;;;;;;;4.20;3.80;;;8.00;59.20;8.00;96141.00;;;;5073492;28;20192;-86
2022/04/20 00:49:17;;;;;;;3.77;3.47;;;7.90;59.20;8.00;96139.00;;;;5073656;28;20228;-86
2022/04/20 00:51:53;;;;;;;3.73;3.50;;;7.90;59.30;7.90;96136.00;;;;5073728;28;20224;-86
2022/04/20 00:54:21;;;;;;;3.97;3.67;;;7.90;59.70;7.90;96154.00;;;;5074781;28;20282;-86
2022/04/20 00:56:49;;;;;;;5.10;3.57;;;7.90;59.50;7.90;96141.00;;;;5072993;28;20286;-86
2022/04/20 00:59:20;;;;;;;3.97;3.70;;;7.80;59.60;7.90;96135.00;;;;5072965;28;20248;-86
2022/04/20 01:01:47;;;;;;;3.87;3.57;;;8.40;59.90;7.80;96136.00;;;;5071248;28;20737;-85
2022/04/20 01:04:15;;;;;;;3.60;3.40;;;7.80;59.80;7.80;96136.00;;;;5056655;28;20197;-86
2022/04/20 01:06:42;;;;;;;3.70;3.50;;;7.80;59.80;7.80;96127.00;;;;5070284;28;20266;-86
2022/04/20 01:09:10;;;;;;;4.00;3.70;;;7.70;59.80;7.80;96126.00;;;;5072341;28;20216;-86
2022/04/20 01:11:37;;;;;;;3.90;3.70;;;7.70;59.80;7.80;96124.00;;;;5072483;28;20669;-86
2022/04/20 01:14:06;;;;;;;3.83;3.63;;;7.80;59.90;7.70;96128.00;;;;5072996;28;20210;-86
2022/04/20 01:16:33;;;;;;;4.17;3.87;;;7.70;60.10;7.70;96124.00;;;;5071998;28;20638;-86
2022/04/20 01:19:02;;;;;;;4.37;4.00;;;7.70;60.00;7.70;96117.00;;;;5072168;28;20263;-86
2022/04/20 01:21:31;;;;;;;4.67;4.37;;;7.60;60.30;7.70;96122.00;;;;5072949;28;20241;-86
2022/04/20 01:23:58;;;;;;;4.40;4.10;;;7.60;60.40;7.60;96110.00;;;;5073069;28;20234;-86
2022/04/20 01:26:27;;;;;;;4.83;4.43;;;7.60;60.40;7.60;96117.00;;;;5072575;28;20396;-86
2022/04/20 01:28:56;;;;;;;4.63;4.27;;;7.60;60.80;7.60;96112.00;;;;5072688;28;20295;-86
2022/04/20 01:31:23;;;;;;;4.00;3.77;;;7.60;61.00;7.60;96111.00;;;;5072330;28;20283;-87
2022/04/20 01:33:50;;;;;;;4.30;4.00;;;7.60;61.00;7.60;96109.00;;;;5072733;28;20270;-87
2022/04/20 01:36:18;;;;;;;4.30;4.00;;;7.50;61.20;7.60;96106.00;;;;5072361;28;20275;-86
2022/04/20 01:38:46;;;;;;;4.53;4.23;;;7.50;61.90;7.60;96096.00;;;;5072388;28;20251;-86
2022/04/20 01:41:14;;;;;;;4.73;4.33;;;7.50;61.30;7.60;96106.00;;;;5071826;28;20200;-86
2022/04/20 01:43:42;;;;;;;4.43;4.00;;;7.50;61.40;7.60;96105.00;;;;5072366;28;20206;-86
2022/04/20 01:46:09;;;;;;;4.60;4.20;;;7.60;61.50;7.60;96110.00;;;;5072114;28;20200;-86
2022/04/20 01:48:36;;;;;;;4.20;3.90;;;7.50;61.50;7.60;96101.00;;;;5073194;28;20644;-86
2022/04/20 01:53:49;;;;;;;5.00;4.60;;;7.50;61.40;7.50;96102.00;;;;5071984;28;20210;-86
2022/04/20 01:56:16;;;;;;;4.73;4.43;;;7.50;61.30;7.50;96108.00;;;;5071909;28;20242;-86
2022/04/20 01:58:43;;;;;;;5.07;4.67;;;7.50;61.40;7.50;96102.00;;;;5073338;28;20256;-86
2022/04/20 02:03:52;;;;;;;5.20;4.80;;;7.40;61.70;7.50;96095.00;;;;5071740;28;20288;-87
2022/04/20 02:06:19;;;;;;;5.17;4.77;;;7.40;61.70;7.40;96105.00;;;;5072267;28;20238;-87
2022/04/20 02:08:46;;;;;;;4.43;4.13;;;7.40;61.70;7.40;96105.00;;;;5070383;28;20247;-87
2022/04/20 02:11:15;;;;;;;4.80;4.47;;;7.40;62.50;7.40;96103.00;;;;5064908;28;20204;-86
2022/04/20 02:13:43;;;;;;;4.60;4.23;;;7.40;62.00;7.40;96103.00;;;;5070867;28;20234;-86
2022/04/20 02:16:10;;;;;;;5.07;4.77;;;7.30;62.00;7.40;96094.00;;;;5071587;28;20277;-86
2022/04/20 02:18:37;;;;;;;4.67;4.27;;;7.30;62.50;7.30;96094.00;;;;5072089;28;20258;-86
2022/04/20 02:21:04;;;;;;;4.90;4.60;;;7.30;62.90;7.30;96100.00;;;;5071495;28;20228;-86
2022/04/20 02:23:32;;;;;;;4.90;4.40;;;7.30;62.10;7.30;96102.00;;;;5071474;28;20574;-86
2022/04/20 02:25:59;;;;;;;4.97;4.50;;;7.30;62.10;7.30;96109.00;;;;5071943;28;20616;-86
2022/04/20 02:28:27;;;;;;;4.70;4.40;;;7.30;62.10;7.30;96107.00;;;;5071709;28;20795;-86
2022/04/20 02:30:55;;;;;;;4.63;4.33;;;7.20;62.20;7.30;96106.00;;;;5071723;28;20203;-86
2022/04/20 02:33:22;;;;;;;5.03;4.73;;;7.20;62.00;7.30;96111.00;;;;5071830;28;20227;-86
2022/04/20 02:35:49;;;;;;;5.03;4.63;;;7.20;62.10;7.20;96108.00;;;;5071426;28;20224;-86
2022/04/20 02:38:17;;;;;;;4.60;4.30;;;7.20;62.30;7.20;96113.00;;;;5071562;28;20311;-85
2022/04/20 02:40:46;;;;;;;5.07;4.67;;;7.20;62.30;7.20;96110.00;;;;5071506;28;20583;-90
2022/04/20 02:43:13;;;;;;;5.20;4.80;;;7.20;62.30;7.20;96107.00;;;;5072017;28;20723;-87
2022/04/20 02:45:42;;;;;;;5.00;4.60;;;7.10;62.30;7.20;96111.00;;;;5071415;28;20239;-86
2022/04/20 02:48:10;;;;;;;5.10;4.80;;;7.20;62.30;7.20;96108.00;;;;5071505;28;20298;-86
2022/04/20 02:50:38;;;;;;;5.17;4.57;;;7.10;62.30;7.20;96110.00;;;;5071621;28;20277;-86
2022/04/20 02:53:05;;;;;;;4.93;4.57;;;7.10;62.30;7.10;96112.00;;;;5071655;28;20271;-86
2022/04/20 02:55:32;;;;;;;5.63;5.13;;;7.10;62.40;7.10;96100.00;;;;5071344;28;20231;-86
2022/04/20 02:58:00;;;;;;;5.20;4.80;;;7.10;62.40;7.10;96106.00;;;;5071455;28;20247;-86
2022/04/20 03:00:27;;;;;;;5.80;5.30;;;7.10;63.10;7.10;96106.00;;;;5071184;28;20299;-86
2022/04/20 03:02:55;;;;;;;4.87;4.53;;;7.00;63.00;7.10;96106.00;;;;5071621;28;20288;-86
2022/04/20 03:05:22;;;;;;;5.23;4.83;;;7.00;63.20;7.00;96108.00;;;;5068878;28;20239;-86
2022/04/20 03:07:49;;;;;;;5.47;4.97;;;7.00;62.40;7.00;96107.00;;;;5061787;28;20278;-86
2022/04/20 03:10:17;;;;;;;5.80;4.87;;;7.00;62.30;7.00;96108.00;;;;5073913;28;20295;-86
2022/04/20 03:12:44;;;;;;;5.77;5.20;;;7.00;62.50;7.00;96102.00;;;;5075273;28;20230;-86
2022/04/20 03:15:11;;;;;;;5.67;5.17;;;7.00;62.40;7.00;96103.00;;;;5075225;28;20681;-86
2022/04/20 03:17:38;;;;;;;6.00;5.47;;;6.90;62.50;6.90;96100.00;;;;5075251;28;20253;-86
2022/04/20 03:20:08;;;;;;;6.53;5.40;;;6.90;62.50;6.90;96102.00;;;;5074040;28;20274;-86
2022/04/20 03:22:35;;;;;;;5.70;5.20;;;6.90;62.70;6.90;96105.00;;;;5075054;28;20287;-86
2022/04/20 03:25:03;;;;;;;5.67;5.23;;;6.90;62.70;6.90;96108.00;;;;5074964;28;20666;-86
2022/04/20 03:27:30;;;;;;;5.80;5.33;;;7.00;62.80;6.90;96113.00;;;;5075259;28;20630;-86
2022/04/20 03:29:57;;;;;;;5.63;5.13;;;6.90;62.80;6.90;96108.00;;;;5075063;28;20239;-85
2022/04/20 03:32:25;;;;;;;6.67;5.27;;;6.80;62.80;6.80;96105.00;;;;5074553;28;20192;-86
2022/04/20 03:34:52;;;;;;;5.67;5.17;;;6.80;62.80;6.80;96119.00;;;;5074877;28;20231;-86
2022/04/20 03:37:21;;;;;;;5.47;4.97;;;6.80;63.00;6.80;96113.00;;;;5074756;28;20720;-86
2022/04/20 03:39:48;;;;;;;5.07;4.67;;;6.80;63.20;6.80;96107.00;;;;5074622;28;20263;-86
2022/04/20 03:42:15;;;;;;;8.77;6.00;;;6.80;63.30;6.80;96109.00;;;;5074684;28;20258;-86
2022/04/20 03:44:42;;;;;;;5.57;5.17;;;6.80;63.20;6.80;96106.00;;;;5074420;28;20196;-86
2022/04/20 03:47:10;;;;;;;5.33;4.93;;;6.80;63.20;6.80;96103.00;;;;5074394;28;20768;-86
2022/04/20 03:49:37;;;;;;;5.70;5.20;;;6.80;63.30;6.80;96097.00;;;;5074694;28;20200;-85
2022/04/20 03:52:05;;;;;;;6.03;5.53;;;6.80;63.40;6.80;96099.00;;;;5074755;28;20231;-86
2022/04/20 03:54:33;;;;;;;5.80;5.30;;;6.80;63.50;6.80;96104.00;;;;5074465;28;20204;-86
2022/04/20 03:57:07;;;;;;;5.80;5.30;;;6.80;63.40;6.80;96095.00;;;;5074192;28;20232;-85
2022/04/20 03:59:36;;;;;;;5.90;5.30;;;6.80;63.50;6.80;96097.00;;;;5074426;28;20234;-87
2022/04/20 04:02:05;;;;;;;6.10;5.60;;;6.80;63.50;6.80;96097.00;;;;5066938;28;20651;-87
2022/04/20 04:04:33;;;;;;;5.70;5.27;;;6.70;63.40;6.80;96109.00;;;;5063405;28;20615;-86
2022/04/20 04:07:00;;;;;;;6.53;5.93;;;6.70;63.50;6.70;96107.00;;;;5065725;28;20196;-86
2022/04/20 04:09:28;;;;;;;6.27;5.67;;;6.80;63.70;6.70;96100.00;;;;5074265;28;20666;-86
2022/04/20 04:11:56;;;;;;;6.23;5.63;;;6.70;63.60;6.70;96098.00;;;;5074162;28;20211;-86
2022/04/20 04:14:23;;;;;;;5.67;5.20;;;6.70;63.70;6.70;96097.00;;;;5074170;28;20251;-86
2022/04/20 04:16:50;;;;;;;5.77;5.37;;;6.70;63.50;6.70;96095.00;;;;5074000;28;20239;-86
2022/04/20 04:19:19;;;;;;;6.17;5.63;;;6.70;63.70;6.70;96096.00;;;;5074069;28;20286;-86
2022/04/20 04:21:47;;;;;;;6.87;5.80;;;6.70;63.60;6.70;96098.00;;;;5073659;28;20220;-85
2022/04/20 04:24:34;;;;;;;5.60;5.10;;;6.70;63.80;6.70;96095.00;;;;5073989;28;20570;-86
2022/04/20 04:27:05;;;;;;;5.80;5.30;;;6.70;63.70;6.70;96093.00;;;;5073575;28;20211;-86
2022/04/20 04:29:33;;;;;;;5.80;5.30;;;6.70;63.70;6.70;96099.00;;;;5073999;28;20192;-86
2022/04/20 04:32:01;;;;;;;5.27;4.87;;;6.70;63.60;6.70;96090.00;;;;5073778;28;20207;-86
2022/04/20 04:34:29;;;;;;;5.23;4.83;;;6.70;63.50;6.70;96096.00;;;;5073745;28;20211;-86
2022/04/20 04:36:56;;;;;;;6.00;5.50;;;6.70;63.60;6.70;96100.00;;;;5073334;28;20204;-86
2022/04/20 04:39:28;;;;;;;5.33;4.93;;;6.70;63.90;6.70;96105.00;;;;5073599;28;20211;-86
2022/04/20 04:41:56;;;;;;;5.60;5.20;;;6.70;64.00;6.80;96101.00;;;;5073699;28;20690;-86
2022/04/20 04:44:25;;;;;;;6.03;5.43;;;6.70;64.10;6.70;96102.00;;;;5073589;28;20232;-86
2022/04/20 04:49:36;;;;;;;5.47;4.83;;;6.70;64.10;6.80;96103.00;;;;5072669;28;20278;-86
2022/04/20 04:52:10;;;;;;;5.63;5.13;;;6.70;64.10;6.80;96104.00;;;;5073601;28;20285;-86
2022/04/20 04:54:40;;;;;;;5.70;5.20;;;6.70;64.20;6.80;96107.00;;;;5073396;28;20212;-87
2022/04/20 04:57:08;;;;;;;5.37;4.87;;;6.70;64.30;6.80;96111.00;;;;5073485;28;20220;-86
2022/04/20 04:59:38;;;;;;;5.57;5.07;;;6.80;64.30;6.80;96113.00;;;;5073344;28;20200;-86
2022/04/20 05:02:07;;;;;;;5.50;5.03;;;6.80;64.20;6.90;96121.00;;;;5073042;28;20227;-87
2022/04/20 05:04:35;;;;;;;4.80;4.47;;;6.80;64.40;6.90;96121.00;;;;5075782;28;20204;-87
2022/04/20 05:07:03;;;;;;;5.07;4.70;;;6.80;64.30;6.90;96123.00;;;;5075364;28;20199;-86
2022/04/20 05:09:32;;;;;;;5.17;4.77;;;6.80;64.20;6.90;96123.00;;;;5075949;28;20227;-87
2022/04/20 05:12:01;;;;;;;5.37;4.93;;;6.80;64.20;6.90;96123.00;;;;5076125;28;20261;-86
2022/04/20 05:14:29;;;;;;;5.10;4.70;;;6.80;64.20;6.90;96119.00;;;;5075286;28;20208;-87
2022/04/20 05:16:59;;;;;;;5.60;5.10;;;6.80;64.20;6.90;96126.00;;;;5073556;28;20733;-86
2022/04/20 05:19:29;;;;;;;5.43;4.97;;;6.80;64.40;6.90;96122.00;;;;5072760;28;20199;-87
2022/04/20 05:21:57;;;;;;;5.43;5.03;;;6.80;64.50;6.90;96117.00;;;;5073156;28;20224;-86
2022/04/20 05:24:24;;;;;;;5.20;4.70;;;6.80;64.40;7.00;96119.00;;;;5072717;28;20212;-86
2022/04/20 05:26:52;;;;;;;5.03;4.67;;;6.90;64.80;7.00;96119.00;;;;5072425;28;20709;-86
2022/04/20 05:29:19;;;;;;;5.20;4.73;;;7.10;64.90;7.00;96113.00;;;;5072249;28;20579;-87
2022/04/20 05:31:51;;;;;;;6.80;5.03;;;6.90;64.60;7.00;96119.00;;;;5072719;28;20204;-87
2022/04/20 05:34:20;;;;;;;5.17;4.67;;;6.90;64.70;7.10;96118.00;;;;5072483;28;20215;-86
2022/04/20 05:42:19;;;;;;;5.07;4.67;;;7.00;65.00;7.20;96129.00;;;;5052218;28;20701;-86
2022/04/20 05:44:47;;;;;;;5.40;5.00;;;7.10;65.10;7.20;96132.00;;;;5052309;28;20196;-86
2022/04/20 05:47:14;;;;;;;5.40;5.00;;;7.10;65.10;7.30;96132.00;;;;5052399;28;20224;-86
2022/04/20 05:49:42;;;;;;;5.80;5.40;;;7.20;65.40;7.30;96127.00;;;;5052336;28;20212;-86
2022/04/20 05:52:10;;;;;;;5.70;5.20;;;7.20;65.20;7.40;96142.00;;;;5052622;28;20244;-86
2022/04/20 05:54:37;;;;;;;5.47;4.93;;;7.20;65.00;7.40;96129.00;;;;5052223;28;20258;-86
2022/04/20 05:57:05;;;;;;;5.50;5.10;;;7.30;65.00;7.50;96129.00;;;;5052307;28;20327;-86
2022/04/20 05:59:32;;;;;;;5.77;5.27;;;7.30;65.20;7.50;96133.00;;;;5052076;28;20207;-87
2022/04/20 06:01:59;;;;;;;6.33;5.10;;;7.40;65.20;7.60;96137.00;;;;5051820;28;20228;-87
2022/04/20 06:04:28;;;;;;;5.67;5.17;;;7.40;65.40;7.60;96133.00;;;;5052434;28;20258;-87
2022/04/20 06:06:57;;;;;;;5.20;4.80;;;7.60;65.40;7.70;96133.00;;;;5052244;28;20205;-86
2022/04/20 06:09:24;;;;;;;5.93;5.43;;;7.50;65.30;7.70;96135.00;;;;5064422;28;20207;-86
2022/04/20 06:11:53;;;;;;;6.03;5.47;;;7.70;65.30;7.80;96132.00;;;;5072082;28;20258;-86
2022/04/20 06:14:20;;;;;;;5.03;4.63;;;7.60;65.10;7.80;96133.00;;;;5072198;28;20551;-86
2022/04/20 06:16:47;;;;;;;5.00;4.60;;;8.10;65.20;7.80;96141.00;;;;5071890;28;20578;-87
2022/04/20 06:19:14;;;;;;;4.97;4.60;;;7.70;64.90;7.90;96133.00;;;;5072040;28;20671;-86
2022/04/20 06:21:42;;;;;;;5.60;5.10;;;7.70;64.90;7.90;96144.00;;;;5071760;28;20247;-86
2022/04/20 06:24:10;;;;;;;5.07;4.67;;;7.80;65.00;8.00;96137.00;;;;5071839;28;20211;-86
2022/04/20 06:26:37;;;;;;;5.03;4.70;;;7.80;65.00;8.00;96146.00;;;;5072107;28;20206;-87
2022/04/20 06:29:04;;;;;;;5.03;4.67;;;7.90;65.00;8.10;96138.00;;;;5072114;28;20216;-85
2022/04/20 06:31:32;;;;;;;5.13;4.67;;;7.90;65.10;8.10;96127.00;;;;5071754;28;20282;-87
2022/04/20 06:33:59;;;;;;;5.67;4.63;;;8.00;65.30;8.20;96144.00;;;;5071892;28;20234;-87
2022/04/20 06:36:27;;;;;;;5.23;4.83;;;8.00;65.20;8.30;96141.00;;;;5051847;28;20192;-87
2022/04/20 06:38:55;;;;;;;5.50;5.10;;;8.10;65.10;8.40;96130.00;;;;5060143;28;20486;-87
2022/04/20 06:41:24;;;;;;;5.90;5.30;;;8.20;65.30;8.40;96133.00;;;;5073665;28;20298;-87
2022/04/20 06:43:51;;;;;;;5.60;5.20;;;8.20;65.30;8.50;96138.00;;;;5075857;28;20253;-86
2022/04/20 06:46:18;;;;;;;5.00;4.60;;;8.30;65.20;8.60;96135.00;;;;5075792;28;20223;-87
2022/04/20 06:48:46;;;;;;;4.83;4.53;;;8.40;65.40;8.70;96136.00;;;;5075803;28;20220;-87
2022/04/20 06:51:13;;;;;;;5.17;4.73;;;8.40;65.30;8.70;96127.00;;;;5075855;28;20602;-87
2022/04/20 06:59:10;;;;;;;4.27;3.97;;;8.70;65.00;9.00;96130.00;;;;5075434;28;20196;-86
2022/04/20 07:01:37;;;;;;;4.33;3.97;;;8.80;64.90;9.10;96114.00;;;;5075786;28;20306;-87
2022/04/20 07:04:05;;;;;;;4.87;4.47;;;8.80;64.80;9.20;96109.00;;;;5075441;28;20283;-87
2022/04/20 07:06:32;;;;;;;4.80;4.13;;;8.90;64.60;9.30;96109.00;;;;5075513;28;20204;-86
2022/04/20 07:09:00;;;;;;;4.60;4.30;;;9.00;64.70;9.40;96107.00;;;;5074884;28;20305;-86
2022/04/20 07:11:28;;;;;;;4.30;3.90;;;9.10;64.50;9.50;96102.00;;;;5075252;28;20674;-86
2022/04/20 07:13:56;;;;;;;3.90;3.60;;;9.20;64.60;9.70;96116.00;;;;5075197;28;20567;-89
2022/04/20 07:16:23;;;;;;;3.90;3.60;;;9.30;64.70;10.00;96107.00;;;;5075217;28;20239;-86
2022/04/20 07:18:50;;;;;;;4.30;3.90;;;9.60;65.60;10.20;96109.00;;;;5075509;28;20299;-86
2022/04/20 07:21:17;;;;;;;3.80;3.50;;;9.80;65.10;10.50;96114.00;;;;5075033;28;20212;-85
2022/04/20 07:23:45;;;;;;;4.50;3.87;;;9.90;64.80;10.70;96113.00;;;;5075127;28;20207;-87
2022/04/20 07:26:13;;;;;;;5.53;3.83;;;10.10;64.50;11.00;96121.00;;;;5074797;28;20200;-88
2022/04/20 07:28:42;;;;;;;3.93;3.63;;;10.40;64.40;11.30;96128.00;;;;5075048;28;20224;-87
2022/04/20 07:31:09;;;;;;;4.33;3.93;;;10.50;64.00;11.50;96135.00;;;;5074904;28;20231;-87
2022/04/20 07:33:36;;;;;;;3.90;3.60;;;10.80;63.70;11.80;96138.00;;;;5074847;28;20200;-88
2022/04/20 07:36:04;;;;;;;4.50;4.10;;;11.10;63.40;12.00;96140.00;;;;5074613;28;20286;-87
2022/04/20 07:38:31;;;;;;;3.60;3.40;;;11.30;62.80;12.30;96142.00;;;;5074719;28;20277;-87
2022/04/20 07:40:58;;;;;;;4.00;3.70;;;11.50;62.10;12.50;96137.00;;;;5074730;28;20682;-89
2022/04/20 07:43:25;;;;;;;4.50;3.60;;;11.60;61.70;12.70;96138.00;;;;5073528;28;20216;-87
2022/04/20 07:45:54;;;;;;;3.50;3.20;;;12.00;61.10;13.00;96141.00;;;;5074199;28;20208;-87
2022/04/20 07:48:21;;;;;;;3.90;3.60;;;12.20;60.90;13.20;96144.00;;;;5072026;28;20643;-87
2022/04/20 07:50:49;;;;;;;4.07;3.73;;;12.40;60.60;13.40;96133.00;;;;5074243;28;20753;-87
2022/04/20 07:53:16;;;;;;;3.60;3.30;;;12.60;60.30;13.60;96138.00;;;;5074284;28;20279;-87
2022/04/20 07:55:46;;;;;;;3.87;3.60;;;12.80;59.70;13.90;96151.00;;;;5074393;28;20200;-87
2022/04/20 07:58:14;;;;;;;3.60;3.30;;;13.00;58.70;14.10;96151.00;;;;5067903;22;20246;-82
2022/04/20 08:00:42;;;;;;;3.50;3.20;;;13.30;58.40;14.30;96150.00;;;;5018250;28;20202;-82
2022/04/20 08:03:12;;;;;;;3.63;3.40;;;13.40;58.40;14.50;96148.00;;;;5017859;28;20582;-81
2022/04/20 08:05:40;;;;;;;3.87;3.57;;;13.60;58.00;14.80;96156.00;;;;5018253;28;20260;-82
2022/04/20 08:08:09;;;;;;;3.30;3.10;;;13.80;57.90;15.00;96151.00;;;;5016204;28;20222;-82
2022/04/20 08:10:36;;;;;;;3.60;3.30;;;14.00;57.70;15.30;96155.00;;;;4997968;28;20297;-79
2022/04/20 08:14:09;;;;;;;3.60;3.30;;;14.20;57.40;15.50;96158.00;;;;4995945;28;20211;-78
2022/04/20 08:15:51;;;;;;;3.33;3.10;;;14.40;56.10;15.80;96167.00;;;;4994948;28;20194;-78
2022/04/20 08:18:19;;;;;;;3.20;2.90;;;14.70;55.90;16.20;96160.00;;;;5014212;28;20218;-78
2022/04/20 08:20:47;;;;;;;3.67;3.37;;;14.90;55.80;16.40;96154.00;;;;5014848;28;20288;-79
2022/04/20 08:23:15;;;;;;;2.93;2.73;;;15.10;54.60;16.70;96165.00;;;;5014666;28;20218;-78
2022/04/20 08:25:42;;;;;;;3.13;2.83;;;15.40;54.10;17.00;96156.00;;;;5014696;28;20549;-78
2022/04/20 08:28:11;;;;;;;3.83;3.53;;;15.60;54.00;17.30;96156.00;;;;5030090;28;20308;-78
2022/04/20 08:30:40;;;;;;;2.90;2.70;;;15.80;51.50;17.60;96166.00;;;;5034662;28;20201;-78
2022/04/20 08:33:08;;;;;;;3.10;2.90;;;16.00;52.80;17.90;96167.00;;;;5034532;28;20263;-78
2022/04/20 08:35:37;;;;;;;3.10;2.90;;;16.30;52.80;18.30;96167.00;;;;5034352;28;20285;-78
2022/04/20 08:38:06;;;;;;;3.27;3.07;;;16.60;52.40;18.70;96173.00;;;;5028198;28;20729;-79
2022/04/20 08:40:34;;;;;;;2.70;2.50;;;16.90;52.90;19.20;96173.00;;;;5014868;28;20690;-79
2022/04/20 08:43:06;;;;;;;3.00;2.40;;;17.20;52.30;19.70;96165.00;;;;5015068;28;20226;-79
2022/04/20 08:45:37;;;;;;;2.80;2.60;;;17.60;52.10;20.10;96174.00;;;;5015180;28;20205;-82
2022/04/20 08:48:06;;;;;;;2.90;2.70;;;18.00;52.30;20.60;96176.00;;;;5030599;28;20217;-80
2022/04/20 08:50:33;;;;;;;2.90;2.70;;;18.50;51.00;21.10;96173.00;;;;5036548;28;20201;-81
2022/04/20 08:53:03;;;;;;;2.93;2.60;;;19.00;49.60;21.40;96173.00;;;;5036328;28;20689;-81
2022/04/20 08:55:31;;;;;;;3.13;2.83;;;19.40;49.10;21.80;96172.00;;;;5017025;28;20566;-81
2022/04/20 08:57:58;;;;;;;5.23;3.10;;;19.90;48.30;22.20;96179.00;;;;5028706;28;20223;-83
2022/04/20 09:00:27;;;;;;;2.17;2.07;;;20.30;46.50;22.50;96180.00;;;;5025172;28;20264;-81
2022/04/20 09:02:56;;;;;;;2.70;2.50;;;20.60;46.90;22.70;96171.00;;;;5014191;28;20368;-82
2022/04/20 09:05:23;;;;;;;2.30;2.20;;;20.90;45.60;23.00;96168.00;;;;5013420;28;20236;-82
2022/04/20 09:07:51;;;;;;;2.47;2.27;;;21.20;45.70;23.30;96166.00;;;;5015706;28;20222;-83
2022/04/20 09:10:20;;;;;;;2.40;2.20;;;21.40;45.10;23.50;96170.00;;;;4995874;28;20214;-81
2022/04/20 09:13:01;;;;;;;2.40;2.27;;;21.70;44.50;23.80;96162.00;;;;4997123;28;20234;-81
2022/04/20 09:15:32;;;;;;;2.03;1.93;;;21.90;43.50;24.00;96174.00;;;;4998555;28;20210;-81
2022/04/20 09:18:02;;;;;;;1.93;1.83;;;22.20;43.50;24.20;96173.00;;;;5001487;28;20221;-81
2022/04/20 09:20:31;;;;;;;2.50;2.30;;;22.50;42.50;24.30;96164.00;;;;4999879;28;20208;-82
2022/04/20 09:23:04;;;;;;;1.93;1.83;;;22.80;42.50;24.40;96170.00;;;;4998311;28;20231;-81
2022/04/20 09:25:35;;;;;;;1.93;1.83;;;23.10;41.90;24.50;96170.00;;;;5015438;28;20217;-81
2022/04/20 09:28:02;;;;;;;2.10;2.00;;;23.50;41.70;24.70;96173.00;;;;5018678;28;20232;-81
2022/04/20 09:30:36;;;;;;;1.97;1.87;;;23.80;41.70;24.90;96164.00;;;;5019120;28;20202;-81
2022/04/20 09:33:07;;;;;;;1.67;1.57;;;24.30;40.20;25.10;96161.00;;;;5017746;28;20236;-82
2022/04/20 09:35:42;;;;;;;2.50;2.30;;;24.60;40.50;25.30;96168.00;;;;5018010;28;20198;-81
2022/04/20 09:38:10;;;;;;;1.80;1.70;;;25.10;39.40;25.40;96167.00;;;;5017192;28;20224;-81
2022/04/20 09:40:40;;;;;;;4.00;1.80;;;25.40;39.30;25.50;96168.00;;;;5019997;28;20201;-83
2022/04/20 09:43:09;;;;;;;1.73;1.63;;;25.70;38.70;25.70;96168.00;;;;5018524;28;20225;-82
2022/04/20 09:45:37;;;;;;;1.30;1.20;;;26.00;38.30;25.80;96172.00;;;;5018047;28;20198;-82
2022/04/20 09:51:09;;;;;;;1.83;1.73;;;26.60;36.00;26.00;96161.00;;;;5016016;28;20201;-81
2022/04/20 09:53:36;;;;;;;1.50;1.40;;;26.80;36.90;26.10;96159.00;;;;4998667;28;20205;-82
2022/04/20 09:56:18;;;;;;;1.60;1.50;;;27.00;36.50;26.20;96161.00;;;;5015746;28;20289;-82
2022/04/20 09:58:46;;;;;;;2.80;1.70;;;27.30;35.80;26.30;96158.00;;;;5015939;28;20225;-82
2022/04/20 10:01:27;;;;;;;1.70;1.53;;;27.50;35.90;26.40;96155.00;;;;5016088;28;20221;-82
2022/04/20 10:03:55;;;;;;;1.83;1.73;;;27.60;33.90;26.40;96156.00;;;;5015764;28;20272;-82
2022/04/20 10:06:23;;;;;;;1.70;1.60;;;27.80;33.30;26.40;96157.00;;;;5015720;28;20242;-83
2022/04/20 10:08:51;;;;;;;1.30;1.30;;;27.80;33.80;26.40;96156.00;;;;5008392;28;20222;-82
2022/04/20 10:11:22;;;;;;;1.67;1.57;;;27.90;33.80;26.40;96151.00;;;;4996071;28;20195;-81
2022/04/20 10:16:05;;;;;;;1.73;1.63;;;27.80;32.70;26.30;96147.00;;;;4997302;28;20641;-83
2022/04/20 10:16:49;;;;;;;2.10;1.63;;;27.80;32.50;26.20;96151.00;;;;4997032;28;20225;-82
2022/04/20 10:19:26;;;;;;;1.53;1.43;;;27.70;32.20;26.10;96147.00;;;;4997849;28;20218;-83
2022/04/20 10:21:55;;;;;;;1.17;1.17;;;27.70;32.40;26.00;96140.00;;;;5002701;28;20229;-82
2022/04/20 10:24:29;;;;;;;1.33;1.30;;;27.60;32.50;25.90;96140.00;;;;5005652;28;20241;-81
2022/04/20 10:27:07;;;;;;;1.70;1.60;;;27.60;32.10;25.80;96142.00;;;;5016712;28;20579;-83
2022/04/20 10:29:45;;;;;;;1.87;1.43;;;27.50;31.90;25.70;96139.00;;;;4996227;28;20696;-81
2022/04/20 10:32:22;;;;;;;1.40;1.30;;;27.40;31.10;25.50;96130.00;;;;5011774;28;20256;-81
2022/04/20 10:34:50;;;;;;;1.50;1.40;;;27.30;31.30;25.40;96138.00;;;;5016745;28;20694;-81
2022/04/20 10:37:19;;;;;;;1.60;1.50;;;27.20;31.70;25.30;96130.00;;;;5016559;28;20226;-81
2022/04/20 10:39:47;;;;;;;1.47;1.37;;;27.10;31.50;25.20;96128.00;;;;5016624;28;20264;-82
2022/04/20 10:42:27;;;;;;;1.40;1.30;;;26.90;31.80;25.20;96125.00;;;;5016294;28;20253;-82
2022/04/20 10:45:01;;;;;;;1.60;1.50;;;26.80;31.70;25.10;96128.00;;;;5017579;28;20205;-82
2022/04/20 10:47:32;;;;;;;1.50;1.40;;;26.70;31.00;25.10;96125.00;;;;5016065;28;20202;-82
2022/04/20 10:50:20;;;;;;;1.27;1.27;;;26.50;31.20;25.00;96129.00;;;;5000746;28;20195;-82
2022/04/20 10:52:55;;;;;;;1.60;1.50;;;26.30;30.70;24.80;96122.00;;;;4998644;28;20582;-82
2022/04/20 10:55:46;;;;;;;1.63;1.53;;;26.00;30.60;24.60;96110.00;;;;5000124;28;20201;-82
2022/04/20 10:58:21;;;;;;;1.60;1.50;;;25.60;30.20;24.30;96111.00;;;;4999186;28;20233;-81
2022/04/20 11:01:07;;;;;;;1.50;1.40;;;25.20;30.50;24.00;96105.00;;;;5000474;28;20264;-83
2022/04/20 11:04:06;;;;;;;1.57;1.47;;;24.70;31.10;23.70;96095.00;;;;4997808;28;20211;-82
2022/04/20 11:07:22;;;;;;;1.50;1.40;;;24.30;31.10;23.30;96094.00;;;;4997783;28;20202;-81
2022/04/20 11:10:07;;;;;;;1.97;1.70;;;23.90;31.40;23.00;96091.00;;;;5013908;28;20226;-82
2022/04/20 11:18:39;;;;;;;1.60;1.50;;;22.60;31.90;22.00;96074.00;;;;5000811;28;20295;-82
2022/04/20 11:21:27;;;;;;;1.93;1.83;;;22.20;32.80;21.70;96075.00;;;;5009531;28;20719;-82
2022/04/20 11:24:05;;;;;;;1.70;1.60;;;21.90;33.10;21.50;96068.00;;;;5014186;28;20221;-82
2022/04/20 11:26:39;;;;;;;1.60;1.40;;;21.60;33.30;21.30;96061.00;;;;5013690;28;20222;-80
2022/04/20 11:29:14;;;;;;;1.77;1.67;;;21.30;33.50;21.00;96061.00;;;;5019553;28;20268;-81
2022/04/20 11:31:46;;;;;;;1.67;1.60;;;21.10;33.30;20.80;96057.00;;;;5019340;28;20186;-81
2022/04/20 11:34:15;;;;;;;2.00;1.70;;;20.80;34.00;20.60;96057.00;;;;5031256;28;20276;-81
2022/04/20 11:36:43;;;;;;;2.43;2.23;;;20.60;34.50;20.50;96054.00;;;;5035221;28;20241;-82
2022/04/20 11:39:11;;;;;;;2.00;1.90;;;20.40;34.60;20.30;96045.00;;;;5020060;28;20221;-82
2022/04/20 11:41:39;;;;;;;4.23;1.93;;;20.20;34.80;20.20;96049.00;;;;5008752;28;20250;-82
2022/04/20 11:44:20;;;;;;;2.10;2.00;;;20.00;35.00;20.00;96044.00;;;;5025709;28;20271;-82